Aviation Digital Data Service (ADDS)

Output produced by METARs form (0021 UTC 24 May 2022)
found at http://www.aviationweather.gov/metar/data/
 
TAF VGEG 232300Z 2400/2506 00000KT 4000 HZ SCT016 BKN100 
     BECMG 2403/2405 15008KT 5000 SCT018 BKN100 
     BECMG 2411/2413 23008KT 4500 HZ SCT016 BKN100 
     TEMPO 2418/2503 25012/15KT 2000 RA/TSRA BKN008 FEW028CB OVC090